Hisle, Kentucky
Current Conditions -  °F | °C
As of 2:15 PM on Thursday 30 Oct 2014 (Local Time) from KI39 Reporting Station
Scattered Clouds Scattered Clouds  
Wind Chill: 52°   Ceiling: Unl
Heat Index: 52°   Visibility: 10mi
Dew Point: 36°   Wind: 7mph
Humidity: 54%   Direction: 20°NNE
Pressure: 30.1"   Gusts: NA
Location:  37.4446°N, 84.0227°W
Report Text: KI39 301815Z AUTO 02006KT 10SM SCT033 11/02 A3010 RMK AO2
Loading
Personal Weather Stations






























Interactive Weather Map
Tropical Storm Tracking
New forecast layout! Learn more

10-Day Weather Forecast

Advertisements
Track Severe Weather on mobile